Time;durP1;ratioP1;P1;durP2;ratioP2;P2;SDS_P1;SDS_P2;PMS_P1;PMS_P2;Temp;Humidity;BMP_temperature;BMP_pressure;BME280_temperature;BME280_humidity;BME280_pressure;Samples;Min_cycle;Max_cycle;Signal;HPM_P1;HPM_P2
2022/09/27 00:00:16;;;;;;;2.97;1.30;;;;;;;12.23;95.58;94652.13;5038588;28;20233;-69
2022/09/27 00:02:44;;;;;;;1.70;1.20;;;;;;;12.36;95.36;94646.69;5037237;28;20206;-69
2022/09/27 00:05:10;;;;;;;1.27;1.00;;;;;;;12.19;96.98;94646.50;5037864;28;20287;-69
2022/09/27 00:07:37;;;;;;;2.63;1.17;;;;;;;12.15;96.63;94651.66;5034767;28;20213;-69
2022/09/27 00:10:05;;;;;;;1.13;0.87;;;;;;;12.10;98.75;94648.88;5039275;28;20233;-69
2022/09/27 00:12:31;;;;;;;1.67;1.30;;;;;;;12.10;99.75;94652.31;5038313;28;20197;-69
2022/09/27 00:14:58;;;;;;;3.93;1.30;;;;;;;11.91;100.00;94640.19;5037647;28;20209;-69
2022/09/27 00:17:25;;;;;;;1.17;0.87;;;;;;;11.85;100.00;94642.91;5038241;28;20194;-69
2022/09/27 00:19:54;;;;;;;3.50;0.90;;;;;;;11.83;100.00;94637.06;5038359;28;20310;-68
2022/09/27 00:22:21;;;;;;;1.60;0.80;;;;;;;11.67;100.00;94637.66;5037666;28;20208;-69
2022/09/27 00:24:48;;;;;;;1.67;0.83;;;;;;;11.77;100.00;94638.78;5037776;28;20204;-69
2022/09/27 00:27:14;;;;;;;1.23;0.87;;;;;;;11.78;100.00;94636.94;5038175;28;20201;-69
2022/09/27 00:29:41;;;;;;;1.57;1.30;;;;;;;11.73;100.00;94639.44;5037637;28;20221;-69
2022/09/27 00:32:07;;;;;;;0.93;0.70;;;;;;;11.78;100.00;94636.94;5037699;28;20198;-68
2022/09/27 00:34:33;;;;;;;0.97;0.87;;;;;;;11.65;100.00;94631.81;5036891;28;20201;-69
2022/09/27 00:37:01;;;;;;;2.17;1.03;;;;;;;11.68;100.00;94628.72;5037796;28;20206;-69
2022/09/27 00:39:28;;;;;;;1.83;1.03;;;;;;;11.65;100.00;94616.00;5036426;28;21224;-69
2022/09/27 00:41:55;;;;;;;1.53;0.93;;;;;;;11.67;100.00;94619.19;5037883;28;20252;-69
2022/09/27 00:44:59;;;;;;;2.90;1.27;;;;;;;11.88;100.00;94618.72;5036881;28;20599;-69
2022/09/27 00:47:30;;;;;;;2.00;1.30;;;;;;;11.73;100.00;94613.03;5037530;28;20201;-69
2022/09/27 00:50:01;;;;;;;2.03;1.10;;;;;;;11.69;100.00;94615.31;5037050;28;20251;-69
2022/09/27 00:52:33;;;;;;;3.00;1.33;;;;;;;11.70;100.00;94618.78;5037091;28;20208;-68
2022/09/27 00:55:03;;;;;;;5.03;1.30;;;;;;;11.43;100.00;94608.72;5037048;28;20228;-69
2022/09/27 00:57:29;;;;;;;2.27;1.30;;;;;;;11.38;100.00;94601.50;5036919;28;20205;-68
2022/09/27 01:00:01;;;;;;;1.83;1.17;;;;;;;11.43;100.00;94591.09;5037075;28;20220;-68
2022/09/27 01:02:28;;;;;;;1.10;0.90;;;;;;;11.36;100.00;94611.44;5035880;28;20205;-68
2022/09/27 01:04:56;;;;;;;3.53;1.30;;;;;;;11.41;100.00;94594.97;5037159;28;20197;-68
2022/09/27 01:07:23;;;;;;;3.57;1.10;;;;;;;11.22;100.00;94588.88;5034829;28;20201;-68
2022/09/27 01:09:51;;;;;;;3.13;1.10;;;;;;;11.14;100.00;94591.03;5036313;28;20228;-68
2022/09/27 01:12:28;;;;;;;1.20;0.87;;;;;;;11.10;100.00;94577.47;5036434;28;20632;-68
2022/09/27 01:15:08;;;;;;;1.40;1.00;;;;;;;11.13;100.00;94577.03;5037735;28;20208;-68
2022/09/27 01:17:43;;;;;;;4.43;0.90;;;;;;;11.12;100.00;94583.31;5036117;28;20205;-68
2022/09/27 01:20:30;;;;;;;2.67;1.13;;;;;;;11.11;100.00;94581.72;5036241;28;20223;-68
2022/09/27 01:23:17;;;;;;;1.23;0.80;;;;;;;11.09;100.00;94572.44;5036215;28;20721;-68
2022/09/27 01:26:02;;;;;;;0.67;0.63;;;;;;;10.91;100.00;94569.78;5036713;28;20201;-68
2022/09/27 01:28:41;;;;;;;1.00;0.70;;;;;;;11.00;100.00;94577.16;5036217;28;20206;-68
2022/09/27 01:31:15;;;;;;;1.83;0.77;;;;;;;10.93;100.00;94568.53;5036870;28;20201;-68
2022/09/27 01:33:47;;;;;;;0.93;0.60;;;;;;;10.88;100.00;94566.78;5035390;28;20792;-68
2022/09/27 01:36:22;;;;;;;1.20;0.90;;;;;;;10.90;100.00;94557.63;5035666;28;20202;-68
2022/09/27 01:38:59;;;;;;;0.70;0.70;;;;;;;10.83;100.00;94553.44;5035997;28;20604;-68
2022/09/27 01:41:34;;;;;;;0.73;0.60;;;;;;;10.83;100.00;94556.88;5036002;28;20209;-68
2022/09/27 01:44:04;;;;;;;0.63;0.40;;;;;;;10.75;100.00;94549.28;5035664;28;20200;-68
2022/09/27 01:46:39;;;;;;;1.93;1.00;;;;;;;10.69;100.00;94551.97;5036344;28;20216;-68
2022/09/27 01:49:11;;;;;;;1.63;0.63;;;;;;;10.69;100.00;94550.16;5036576;28;20228;-68
2022/09/27 01:51:43;;;;;;;2.47;0.90;;;;;;;10.76;100.00;94555.34;5035483;28;20201;-68
2022/09/27 01:54:14;;;;;;;1.67;0.80;;;;;;;10.73;100.00;94553.16;5035860;28;20581;-68
2022/09/27 01:56:46;;;;;;;3.37;1.03;;;;;;;10.71;100.00;94542.81;5035739;28;20208;-68
2022/09/27 01:59:18;;;;;;;1.20;0.90;;;;;;;10.75;100.00;94537.94;5035698;28;20237;-69
2022/09/27 02:01:50;;;;;;;1.77;0.90;;;;;;;10.68;100.00;94551.19;5036227;28;20209;-68
2022/09/27 02:04:20;;;;;;;2.03;1.00;;;;;;;10.77;100.00;94552.50;5035114;28;20205;-67
2022/09/27 02:06:50;;;;;;;1.60;1.10;;;;;;;10.80;100.00;94538.88;5033182;28;20197;-68
2022/09/27 02:09:21;;;;;;;1.17;0.80;;;;;;;10.64;100.00;94533.38;5032922;28;20568;-68
2022/09/27 02:11:54;;;;;;;1.57;0.80;;;;;;;10.57;100.00;94532.66;5036014;28;20201;-68
2022/09/27 02:14:28;;;;;;;2.23;1.00;;;;;;;10.71;100.00;94542.03;5034701;28;20193;-68
2022/09/27 02:17:00;;;;;;;1.80;1.07;;;;;;;10.71;100.00;94542.03;5035654;28;20783;-68
2022/09/27 02:19:38;;;;;;;0.80;0.57;;;;;;;10.73;100.00;94542.59;5035584;28;20236;-68
2022/09/27 02:22:14;;;;;;;1.47;0.90;;;;;;;10.76;100.00;94532.44;5036046;28;20225;-68
2022/09/27 02:24:46;;;;;;;0.63;0.60;;;;;;;10.72;100.00;94533.91;5035961;28;20205;-68
2022/09/27 02:27:18;;;;;;;0.80;0.80;;;;;;;10.74;100.00;94531.84;5036326;28;20208;-68
2022/09/27 02:29:50;;;;;;;1.93;0.90;;;;;;;10.73;100.00;94530.25;5035519;28;20246;-67
2022/09/27 02:32:18;;;;;;;2.87;0.90;;;;;;;10.77;100.00;94530.59;5035601;28;20189;-68
2022/09/27 02:34:46;;;;;;;2.40;1.43;;;;;;;10.76;100.00;94531.66;5036152;28;21092;-68
2022/09/27 02:37:13;;;;;;;5.77;0.90;;;;;;;10.73;100.00;94525.00;5035587;28;20197;-68
2022/09/27 02:39:40;;;;;;;3.00;1.10;;;;;;;10.77;100.00;94531.44;5035472;28;20613;-68
2022/09/27 02:42:07;;;;;;;2.30;1.30;;;;;;;10.68;100.00;94530.09;5035795;28;20231;-68
2022/09/27 02:44:34;;;;;;;2.60;1.30;;;;;;;10.70;100.00;94532.50;5034272;28;20218;-68
2022/09/27 02:47:14;;;;;;;2.13;1.30;;;;;;;10.75;100.00;94524.78;5036392;28;20679;-68
2022/09/27 02:49:55;;;;;;;1.10;0.90;;;;;;;10.83;100.00;94529.75;5036491;28;20604;-68
2022/09/27 02:52:32;;;;;;;1.73;1.17;;;;;;;10.84;100.00;94532.16;5035145;28;20208;-68
2022/09/27 02:55:08;;;;;;;3.63;0.97;;;;;;;10.85;100.00;94540.88;5036395;28;20201;-68
2022/09/27 02:57:47;;;;;;;1.90;0.97;;;;;;;10.94;100.00;94532.44;5035604;28;20208;-68
2022/09/27 03:00:17;;;;;;;1.63;1.00;;;;;;;10.78;100.00;94534.84;5036493;28;20227;-68
2022/09/27 03:02:53;;;;;;;0.80;0.73;;;;;;;10.93;100.00;94535.31;5035076;28;20701;-68
2022/09/27 03:05:24;;;;;;;0.97;0.87;;;;;;;10.90;100.00;94531.28;5035926;28;20197;-69
2022/09/27 03:07:50;;;;;;;3.13;1.37;;;;;;;10.90;100.00;94526.00;5032207;28;20207;-68
2022/09/27 03:10:19;;;;;;;1.87;0.80;;;;;;;10.92;100.00;94516.06;5035804;28;20235;-68
2022/09/27 03:12:46;;;;;;;1.67;1.10;;;;;;;10.74;100.00;94529.22;5034490;28;20730;-68
2022/09/27 03:15:13;;;;;;;1.30;0.70;;;;;;;10.81;100.00;94527.31;5036057;28;20205;-68
2022/09/27 03:17:40;;;;;;;1.33;1.03;;;;;;;10.77;100.00;94522.69;5036047;28;20283;-68
2022/09/27 03:20:07;;;;;;;1.77;0.90;;;;;;;10.83;100.00;94521.84;5034876;28;20224;-68
2022/09/27 03:22:37;;;;;;;1.30;1.00;;;;;;;10.88;100.00;94525.41;5035391;28;20260;-68
2022/09/27 03:25:04;;;;;;;1.37;0.93;;;;;;;10.78;100.00;94533.03;5035422;28;20201;-68
2022/09/27 03:27:30;;;;;;;0.50;0.50;;;;;;;10.81;100.00;94527.31;5036025;28;20197;-68
2022/09/27 03:29:58;;;;;;;1.57;0.93;;;;;;;10.79;100.00;94526.72;5035572;28;20221;-68
2022/09/27 03:32:24;;;;;;;7.03;1.00;;;;;;;10.85;100.00;94532.97;5034860;28;20202;-68
2022/09/27 03:34:53;;;;;;;0.87;0.80;;;;;;;10.83;100.00;94529.75;5035911;28;20205;-68
2022/09/27 03:37:21;;;;;;;1.63;1.10;;;;;;;10.82;100.00;94528.13;5036616;28;20296;-68
2022/09/27 03:39:49;;;;;;;2.73;1.27;;;;;;;10.88;100.00;94521.97;5035385;28;20240;-69
2022/09/27 03:42:15;;;;;;;1.40;1.10;;;;;;;10.88;100.00;94521.97;5036862;28;20221;-68
2022/09/27 03:44:42;;;;;;;1.23;0.90;;;;;;;10.86;100.00;94524.84;5039657;28;20216;-68
2022/09/27 03:47:09;;;;;;;6.90;1.50;;;;;;;10.85;100.00;94528.50;5039351;28;20236;-68
2022/09/27 03:49:35;;;;;;;1.30;1.20;;;;;;;10.91;100.00;94513.63;5038337;28;20237;-68
2022/09/27 03:52:02;;;;;;;4.60;1.17;;;;;;;10.92;100.00;94518.69;5039082;28;20264;-68
2022/09/27 03:54:28;;;;;;;1.73;0.87;;;;;;;10.85;100.00;94527.69;5038728;28;20223;-68
2022/09/27 03:56:56;;;;;;;0.83;0.70;;;;;;;10.92;100.00;94529.25;5038965;28;20204;-69
2022/09/27 03:59:23;;;;;;;1.03;0.70;;;;;;;10.82;100.00;94533.38;5039000;28;20221;-67
2022/09/27 04:01:49;;;;;;;0.80;0.80;;;;;;;10.82;100.00;94528.13;5038904;28;20768;-68
2022/09/27 04:04:16;;;;;;;1.23;0.70;;;;;;;10.86;100.00;94530.13;5038523;28;21021;-68
2022/09/27 04:06:42;;;;;;;1.17;0.70;;;;;;;10.81;100.00;94518.63;5036752;28;20260;-67
2022/09/27 04:09:08;;;;;;;1.17;0.90;;;;;;;10.80;100.00;94530.19;5038963;28;20248;-68
2022/09/27 04:11:35;;;;;;;1.53;0.60;;;;;;;10.80;100.00;94523.06;5038551;28;20197;-67
2022/09/27 04:14:04;;;;;;;1.37;0.80;;;;;;;10.88;100.00;94538.59;5038336;28;20202;-68
2022/09/27 04:16:31;;;;;;;1.70;0.60;;;;;;;10.84;100.00;94542.69;5038851;28;20765;-68
2022/09/27 04:18:57;;;;;;;1.23;0.87;;;;;;;10.74;100.00;94546.84;5038781;28;20220;-68
2022/09/27 04:21:24;;;;;;;0.90;0.70;;;;;;;10.78;100.00;94548.84;5038458;28;20599;-68
2022/09/27 04:23:51;;;;;;;2.13;1.00;;;;;;;10.74;100.00;94552.13;5038382;28;20294;-69
2022/09/27 04:26:17;;;;;;;0.93;0.50;;;;;;;10.69;100.00;94550.16;5038188;28;20197;-68
2022/09/27 04:28:44;;;;;;;1.13;0.80;;;;;;;10.68;100.00;94552.97;5038677;28;20216;-68
2022/09/27 04:31:12;;;;;;;1.33;1.00;;;;;;;10.76;100.00;94556.16;5038232;28;20681;-68
2022/09/27 04:33:39;;;;;;;0.63;0.50;;;;;;;10.73;100.00;94561.03;5037610;28;20201;-68
2022/09/27 04:38:50;;;;;;;0.60;0.60;;;;;;;10.67;100.00;94572.47;5038200;28;20266;-68
2022/09/27 04:41:17;;;;;;;0.60;0.50;;;;;;;10.67;100.00;94567.22;5038008;28;20233;-68
2022/09/27 04:43:43;;;;;;;3.23;0.90;;;;;;;10.71;100.00;94581.56;5037944;28;20212;-68
2022/09/27 04:46:09;;;;;;;0.60;0.60;;;;;;;10.67;100.00;94572.47;5038735;28;20197;-68
2022/09/27 04:48:37;;;;;;;1.07;0.63;;;;;;;10.68;100.00;94579.31;5037578;28;20224;-68
2022/09/27 04:51:04;;;;;;;0.50;0.50;;;;;;;10.56;100.00;94586.34;5037132;28;20227;-68
2022/09/27 04:53:30;;;;;;;0.47;0.47;;;;;;;10.54;100.00;94588.41;5036773;28;20215;-68
2022/09/27 04:55:57;;;;;;;1.53;1.13;;;;;;;10.55;100.00;94592.63;5038842;28;20232;-68
2022/09/27 04:58:24;;;;;;;0.90;0.70;;;;;;;10.61;100.00;94583.88;5037505;28;20232;-68
2022/09/27 05:00:53;;;;;;;1.10;0.60;;;;;;;10.47;100.00;94592.91;5038170;28;20228;-68
2022/09/27 05:03:20;;;;;;;2.07;0.80;;;;;;;10.46;100.00;94602.66;5037026;28;20229;-68
2022/09/27 05:05:48;;;;;;;1.70;0.73;;;;;;;10.48;100.00;94600.59;5038094;28;20197;-68
2022/09/27 05:08:14;;;;;;;2.07;1.13;;;;;;;10.45;100.00;94611.56;5034524;28;20571;-70
2022/09/27 05:10:40;;;;;;;2.10;0.83;;;;;;;10.41;100.00;94617.44;5038401;28;20594;-68
2022/09/27 05:13:07;;;;;;;1.87;0.70;;;;;;;10.33;100.00;94613.28;5036745;28;21103;-68
2022/09/27 05:15:35;;;;;;;0.83;0.73;;;;;;;10.40;100.00;94621.13;5038082;28;20602;-67
2022/09/27 05:18:01;;;;;;;3.17;1.10;;;;;;;10.38;100.00;94625.78;5037692;28;20662;-67
2022/09/27 05:20:28;;;;;;;1.03;0.70;;;;;;;10.38;100.00;94631.06;5037313;28;20217;-68
2022/09/27 05:22:56;;;;;;;7.03;1.07;;;;;;;10.46;100.00;94633.41;5036887;28;20225;-67
2022/09/27 05:25:22;;;;;;;2.40;0.90;;;;;;;10.42;100.00;94626.97;5037681;28;21300;-67
2022/09/27 05:27:49;;;;;;;1.97;0.87;;;;;;;10.34;100.00;94635.13;5037931;28;20208;-68
2022/09/27 05:30:16;;;;;;;2.07;1.00;;;;;;;10.33;100.00;94639.59;5036790;28;20221;-68
2022/09/27 05:32:44;;;;;;;1.90;0.73;;;;;;;10.25;100.00;94644.31;5036879;28;20201;-68
2022/09/27 05:35:11;;;;;;;2.10;0.93;;;;;;;10.23;100.00;94648.97;5037293;28;20682;-68
2022/09/27 05:37:39;;;;;;;2.13;1.10;;;;;;;10.26;100.00;94653.00;5037139;28;20228;-67
2022/09/27 05:40:08;;;;;;;2.13;0.93;;;;;;;10.36;100.00;94651.50;5036768;28;20232;-67
2022/09/27 05:42:37;;;;;;;5.17;1.10;;;;;;;10.24;100.00;94650.59;5036227;28;20261;-68
2022/09/27 05:45:05;;;;;;;2.30;1.20;;;;;;;10.31;100.00;94661.06;5037114;28;20201;-68
2022/09/27 05:47:32;;;;;;;5.43;1.00;;;;;;;10.27;100.00;94663.31;5036923;28;20237;-68
2022/09/27 05:49:58;;;;;;;4.63;0.70;;;;;;;10.26;100.00;94666.16;5036547;28;20231;-68
2022/09/27 05:52:25;;;;;;;1.67;0.80;;;;;;;10.24;100.00;94660.31;5036314;28;20197;-68
2022/09/27 05:54:51;;;;;;;0.60;0.60;;;;;;;10.27;100.00;94665.94;5037056;28;20697;-67
2022/09/27 05:57:19;;;;;;;1.10;0.47;;;;;;;10.24;100.00;94662.97;5036771;28;20201;-68
2022/09/27 05:59:46;;;;;;;1.53;0.70;;;;;;;10.26;100.00;94664.38;5036316;28;20221;-69
2022/09/27 06:02:13;;;;;;;0.90;0.90;;;;;;;10.35;100.00;94670.97;5036455;28;20701;-69
2022/09/27 06:04:39;;;;;;;1.73;1.00;;;;;;;10.44;100.00;94675.75;5035636;28;21360;-69
2022/09/27 06:07:06;;;;;;;1.70;0.90;;;;;;;10.53;100.00;94679.75;5030291;28;20575;-70
2022/09/27 06:09:32;;;;;;;2.10;1.00;;;;;;;10.47;100.00;94677.97;5034329;28;20233;-69
2022/09/27 06:11:59;;;;;;;4.00;1.30;;;;;;;10.49;100.00;94675.94;5035245;28;20193;-70
2022/09/27 06:14:27;;;;;;;0.43;0.43;;;;;;;10.58;100.00;94679.13;5033782;28;20197;-68
2022/09/27 06:16:54;;;;;;;3.87;0.70;;;;;;;10.48;100.00;94682.22;5034903;28;20212;-68
2022/09/27 06:19:20;;;;;;;1.27;1.10;;;;;;;10.53;100.00;94681.59;5034767;28;21146;-67
2022/09/27 06:21:49;;;;;;;4.60;1.13;;;;;;;10.61;100.00;94684.75;5034614;28;20220;-67
2022/09/27 06:24:16;;;;;;;0.50;0.50;;;;;;;10.36;100.00;94680.47;5035705;28;20719;-68
2022/09/27 06:26:42;;;;;;;0.73;0.47;;;;;;;10.43;100.00;94691.78;5039487;28;20204;-68
2022/09/27 06:29:09;;;;;;;0.43;0.43;;;;;;;10.36;100.00;94685.72;5034670;28;20312;-68
2022/09/27 06:31:37;;;;;;;2.23;0.63;;;;;;;10.47;100.00;94688.50;5034563;28;20208;-68
2022/09/27 06:34:03;;;;;;;5.77;1.30;;;;;;;10.28;100.00;94685.19;5033700;28;20616;-69
2022/09/27 06:36:30;;;;;;;0.70;0.60;;;;;;;10.20;100.00;94688.91;5035963;28;20204;-69
2022/09/27 06:39:00;;;;;;;2.30;0.83;;;;;;;10.21;100.00;94687.88;5036284;28;20217;-69
2022/09/27 06:41:27;;;;;;;3.23;0.53;;;;;;;9.97;100.00;94693.88;5035980;28;20211;-68
2022/09/27 06:43:53;;;;;;;2.07;1.00;;;;;;;10.10;100.00;94693.81;5034652;28;20232;-69
2022/09/27 06:46:20;;;;;;;1.50;0.83;;;;;;;10.10;100.00;94700.91;5035316;28;20201;-69
2022/09/27 06:48:47;;;;;;;1.30;0.90;;;;;;;10.05;100.00;94706.78;5036757;28;20205;-69
2022/09/27 06:51:14;;;;;;;1.50;0.60;;;;;;;10.09;100.00;94715.06;5035671;28;20209;-69
2022/09/27 06:53:40;;;;;;;0.57;0.57;;;;;;;9.88;100.00;94708.25;5035357;28;20230;-68
2022/09/27 06:56:07;;;;;;;3.80;0.40;;;;;;;9.92;100.00;94719.19;5036355;28;20201;-68
2022/09/27 07:01:19;;;;;;;1.20;0.70;;;;;;;9.91;100.00;94717.56;5035593;28;20219;-69
2022/09/27 07:03:50;;;;;;;1.07;0.60;;;;;;;10.08;100.00;94714.28;5035675;28;20232;-68
2022/09/27 07:06:21;;;;;;;1.60;1.00;;;;;;;10.14;100.00;94717.88;5033034;28;20208;-68
2022/09/27 07:08:50;;;;;;;0.70;0.50;;;;;;;10.19;100.00;94721.50;5035422;28;20243;-68
2022/09/27 07:11:17;;;;;;;0.67;0.40;;;;;;;10.18;100.00;94730.41;5035383;28;20233;-67
2022/09/27 07:13:43;;;;;;;3.80;0.63;;;;;;;10.27;100.00;94734.41;5035470;28;20205;-67
2022/09/27 07:16:11;;;;;;;0.63;0.60;;;;;;;10.45;100.00;94729.22;5037098;28;20208;-66
2022/09/27 07:18:38;;;;;;;1.50;0.80;;;;;;;10.50;100.00;94737.28;5037856;28;20204;-68
2022/09/27 07:21:07;;;;;;;0.50;0.50;;;;;;;10.43;100.00;94742.59;5037637;28;20190;-67
2022/09/27 07:23:34;;;;;;;0.40;0.40;;;;;;;10.33;100.00;94744.09;5036248;28;20261;-68
2022/09/27 07:26:03;;;;;;;5.07;0.63;;;;;;;10.31;100.00;94751.41;5042170;28;20216;-68
2022/09/27 07:28:30;;;;;;;1.17;0.57;;;;;;;10.39;100.00;94761.69;5045469;28;20225;-68
2022/09/27 07:30:59;;;;;;;1.30;0.50;;;;;;;10.34;100.00;94756.25;5044908;28;20221;-69
2022/09/27 07:33:26;;;;;;;2.57;0.70;;;;;;;10.39;100.00;94766.94;5039633;28;20231;-68
2022/09/27 07:35:52;;;;;;;1.03;0.70;;;;;;;10.46;100.00;94768.53;5045142;28;20215;-67
2022/09/27 07:38:20;;;;;;;2.23;0.63;;;;;;;10.44;100.00;94760.03;5037185;28;20209;-68
2022/09/27 07:40:47;;;;;;;1.00;0.57;;;;;;;10.40;100.00;94765.94;5037442;28;20217;-68
2022/09/27 07:43:13;;;;;;;0.30;0.30;;;;;;;10.34;100.00;94777.31;5038087;28;20246;-67
2022/09/27 07:45:40;;;;;;;1.00;0.80;;;;;;;10.36;100.00;94777.88;5039677;28;20570;-68
2022/09/27 07:48:07;;;;;;;1.70;0.40;;;;;;;10.63;100.00;94782.00;5037362;28;20201;-68
2022/09/27 07:50:33;;;;;;;2.30;0.93;;;;;;;10.72;99.98;94776.25;5038065;28;20240;-67
2022/09/27 07:53:00;;;;;;;0.40;0.30;;;;;;;10.80;100.00;94791.81;5034580;28;20196;-68
2022/09/27 07:55:28;;;;;;;2.07;0.67;;;;;;;11.07;100.00;94788.78;5037539;28;21068;-67
2022/09/27 07:58:02;;;;;;;1.77;0.53;;;;;;;11.00;100.00;94793.28;5037862;28;20201;-68
2022/09/27 08:00:29;;;;;;;0.90;0.83;;;;;;;10.77;99.79;94786.16;5038648;28;20589;-68
2022/09/27 08:02:55;;;;;;;2.63;0.70;;;;;;;10.87;100.00;94797.03;5036426;28;20223;-68
2022/09/27 08:05:22;;;;;;;2.33;0.40;;;;;;;10.83;99.60;94798.47;5037968;28;20244;-67
2022/09/27 08:07:55;;;;;;;2.90;0.57;;;;;;;11.09;97.58;94805.19;5034363;28;20216;-68
2022/09/27 08:10:24;;;;;;;0.30;0.30;;;;;;;11.17;97.74;94809.38;5036808;28;20221;-68
2022/09/27 08:12:52;;;;;;;4.00;0.60;;;;;;;11.32;96.78;94804.59;5035504;28;20744;-67
2022/09/27 08:15:18;;;;;;;1.53;0.60;;;;;;;11.28;95.35;94804.22;5036999;28;20193;-68
2022/09/27 08:17:45;;;;;;;0.63;0.60;;;;;;;11.33;95.60;94804.38;5037420;28;21146;-68
2022/09/27 08:20:13;;;;;;;1.00;0.50;;;;;;;11.25;96.23;94817.00;5037585;28;20730;-67
2022/09/27 08:22:40;;;;;;;2.83;1.20;;;;;;;11.27;95.32;94818.41;5037017;28;20209;-67
2022/09/27 08:25:08;;;;;;;1.03;0.80;;;;;;;11.20;95.42;94817.69;5037486;28;20204;-68
2022/09/27 08:27:34;;;;;;;0.47;0.47;;;;;;;11.19;94.48;94831.88;5040002;28;20217;-68
2022/09/27 08:30:03;;;;;;;0.83;0.40;;;;;;;11.21;94.11;94827.19;5043941;28;20217;-68
2022/09/27 08:32:30;;;;;;;1.10;0.73;;;;;;;11.13;92.52;94855.66;5044497;28;20198;-68
2022/09/27 08:34:56;;;;;;;0.83;0.70;;;;;;;11.17;91.44;94844.44;5044252;28;20220;-68
2022/09/27 08:37:23;;;;;;;0.63;0.50;;;;;;;11.25;92.52;94836.28;5045601;28;20204;-68
2022/09/27 08:39:49;;;;;;;0.70;0.70;;;;;;;11.20;90.94;94849.31;5045314;28;20221;-68
2022/09/27 08:42:27;;;;;;;1.27;0.77;;;;;;;11.10;90.91;94851.59;5044502;28;20198;-68
2022/09/27 08:45:01;;;;;;;0.70;0.60;;;;;;;11.00;90.85;94851.25;5041819;28;20470;-68
2022/09/27 08:47:34;;;;;;;0.87;0.40;;;;;;;11.01;90.47;94855.53;5042199;28;20209;-68
2022/09/27 08:50:04;;;;;;;2.20;1.20;;;;;;;10.90;91.95;94857.22;5045114;28;20236;-68
2022/09/27 08:52:33;;;;;;;1.40;0.80;;;;;;;11.23;92.67;94854.16;5041926;28;20202;-69
2022/09/27 08:55:04;;;;;;;0.50;0.50;;;;;;;11.42;91.00;94853.19;5036733;28;20693;-70
2022/09/27 08:57:30;;;;;;;0.30;0.30;;;;;;;11.34;90.06;94847.38;5036642;28;20678;-69
2022/09/27 09:00:04;;;;;;;1.03;0.47;;;;;;;11.54;89.10;94862.03;5037260;28;20217;-67
2022/09/27 09:02:33;;;;;;;1.43;0.97;;;;;;;11.59;88.92;94851.66;5036986;28;20211;-67
2022/09/27 09:05:03;;;;;;;1.33;0.60;;;;;;;11.78;87.98;94854.09;5037340;28;20224;-68
2022/09/27 09:07:43;;;;;;;0.63;0.60;;;;;;;11.57;85.74;94864.28;5036816;28;20203;-68
2022/09/27 09:13:43;;;;;;;0.23;0.23;;;;;;;11.44;86.86;94872.22;5021651;28;20866;-68
2022/09/27 09:16:26;;;;;;;1.57;0.50;;;;;;;11.54;86.87;94875.22;5022842;28;20213;-68
2022/09/27 09:19:06;;;;;;;0.33;0.33;;;;;;;11.32;86.89;94879.22;5035837;28;20244;-68
2022/09/27 09:21:45;;;;;;;0.43;0.43;;;;;;;11.36;86.87;94877.78;5043399;28;20196;-68
2022/09/27 09:24:22;;;;;;;0.80;0.50;;;;;;;11.42;87.75;94879.56;5044066;28;20221;-68
2022/09/27 09:26:57;;;;;;;0.47;0.47;;;;;;;11.30;88.16;94877.81;5041711;28;20210;-68
2022/09/27 09:29:44;;;;;;;1.00;0.60;;;;;;;11.51;87.98;94877.47;5043614;28;20216;-68
2022/09/27 09:32:22;;;;;;;1.20;0.90;;;;;;;11.44;87.36;94874.88;5043385;28;20197;-68
2022/09/27 09:34:56;;;;;;;1.10;0.77;;;;;;;11.56;87.12;94881.91;5042066;28;20208;-68
2022/09/27 09:37:34;;;;;;;0.30;0.30;;;;;;;11.43;87.37;94883.84;5041129;28;20193;-68
2022/09/27 09:40:05;;;;;;;0.97;0.70;;;;;;;11.44;87.94;94884.63;5042879;28;20221;-68
2022/09/27 09:42:37;;;;;;;5.93;0.60;;;;;;;11.45;87.09;94897.59;5042239;28;20914;-68
2022/09/27 09:45:07;;;;;;;1.07;0.50;;;;;;;11.48;86.45;94885.81;5043978;28;20227;-68
2022/09/27 09:47:38;;;;;;;0.30;0.30;;;;;;;11.77;84.94;94886.81;5039839;28;20201;-68
2022/09/27 09:50:17;;;;;;;3.23;0.60;;;;;;;12.13;82.82;94872.84;5043974;28;21385;-68
2022/09/27 09:52:50;;;;;;;0.83;0.40;;;;;;;12.25;81.10;94882.47;5042310;28;20201;-68
2022/09/27 09:55:20;;;;;;;0.33;0.33;;;;;;;12.13;81.27;94880.78;5039800;28;20209;-68
2022/09/27 09:57:59;;;;;;;1.33;0.87;;;;;;;12.14;80.20;94879.75;5040224;28;20197;-68
2022/09/27 10:00:26;;;;;;;1.40;0.70;;;;;;;11.96;81.09;94871.81;5043636;28;20235;-68
2022/09/27 10:02:55;;;;;;;1.47;1.00;;;;;;;11.89;83.64;94873.69;5039877;28;20201;-68
2022/09/27 10:05:25;;;;;;;4.30;1.67;;;;;;;12.16;84.51;94875.88;5036041;28;20197;-68
2022/09/27 10:07:55;;;;;;;1.13;0.73;;;;;;;12.26;81.61;94884.91;5034202;28;21116;-68
2022/09/27 10:10:22;;;;;;;1.27;0.80;;;;;;;12.32;82.49;94884.03;5034465;28;20291;-68
2022/09/27 10:12:49;;;;;;;5.03;1.73;;;;;;;12.18;78.99;94879.91;5035400;28;20201;-68
2022/09/27 10:15:18;;;;;;;1.70;0.87;;;;;;;12.40;79.88;94881.09;5035705;28;20193;-68
2022/09/27 10:17:49;;;;;;;2.30;1.10;;;;;;;12.71;78.65;94880.13;5033086;28;20201;-68
2022/09/27 10:20:25;;;;;;;0.90;0.53;;;;;;;12.37;76.63;94884.19;5033537;28;20594;-68
2022/09/27 10:22:55;;;;;;;1.17;0.87;;;;;;;12.30;75.76;94883.41;5033002;28;20263;-68
2022/09/27 10:25:22;;;;;;;4.13;0.80;;;;;;;12.23;74.15;94873.94;5032937;28;20212;-68
2022/09/27 10:27:53;;;;;;;2.77;0.90;;;;;;;12.21;77.10;94881.31;5037485;28;20209;-68
2022/09/27 10:30:26;;;;;;;2.50;1.20;;;;;;;12.17;80.50;94880.94;5042305;28;20237;-68
2022/09/27 10:32:56;;;;;;;1.17;0.67;;;;;;;11.84;82.40;94918.44;5033243;28;20671;-69
2022/09/27 10:35:34;;;;;;;2.77;0.50;;;;;;;10.43;95.73;94968.25;5035495;28;20201;-68
2022/09/27 10:38:23;;;;;;;0.30;0.30;;;;;;;9.69;97.67;94935.31;5034987;28;20658;-68
2022/09/27 10:40:51;;;;;;;2.13;0.90;;;;;;;9.49;100.00;94925.03;5035159;28;20221;-71
2022/09/27 10:43:26;;;;;;;0.37;0.37;;;;;;;9.49;100.00;94932.91;5034165;28;20239;-68
2022/09/27 10:46:02;;;;;;;3.07;1.70;;;;;;;9.48;100.00;94934.75;5034860;28;20197;-68
2022/09/27 10:48:29;;;;;;;1.10;0.50;;;;;;;9.26;100.00;94937.75;5034712;28;20204;-68
2022/09/27 10:50:59;;;;;;;0.43;0.30;;;;;;;9.34;100.00;94924.41;5037754;28;20217;-69
2022/09/27 10:53:28;;;;;;;2.67;1.63;;;;;;;9.46;100.00;94934.13;5038102;28;20679;-68
2022/09/27 10:55:56;;;;;;;6.03;0.83;;;;;;;9.44;100.00;94930.06;5038584;28;20201;-68
2022/09/27 10:58:27;;;;;;;2.80;1.87;;;;;;;9.52;100.00;94928.06;5035250;28;20247;-68
2022/09/27 11:00:56;;;;;;;0.63;0.60;;;;;;;9.58;100.00;94926.44;5038435;28;20225;-68
2022/09/27 11:03:27;;;;;;;0.57;0.50;;;;;;;9.68;100.00;94927.66;5038304;28;20224;-68
2022/09/27 11:05:55;;;;;;;0.50;0.50;;;;;;;9.76;100.00;94920.38;5039345;28;20252;-68
2022/09/27 11:08:28;;;;;;;0.40;0.40;;;;;;;9.88;100.00;94916.09;5036969;28;20205;-68
2022/09/27 11:11:05;;;;;;;0.60;0.40;;;;;;;10.03;100.00;94906.19;5034266;28;20217;-68
2022/09/27 11:13:34;;;;;;;1.60;0.90;;;;;;;10.21;100.00;94913.41;5037811;28;20205;-68
2022/09/27 11:16:24;;;;;;;1.00;0.50;;;;;;;10.36;98.54;94907.72;5037809;28;20197;-68
2022/09/27 11:19:03;;;;;;;4.73;1.40;;;;;;;10.54;98.46;94899.97;5037108;28;20206;-69
2022/09/27 11:21:40;;;;;;;1.57;0.70;;;;;;;10.52;95.77;94901.97;5036302;28;20204;-68
2022/09/27 11:24:25;;;;;;;5.07;1.60;;;;;;;10.90;100.00;94896.75;5037488;28;20783;-69
2022/09/27 11:27:05;;;;;;;7.47;2.83;;;;;;;11.00;100.00;94896.06;5037647;28;20197;-68
2022/09/27 11:29:45;;;;;;;2.03;1.20;;;;;;;11.18;97.67;94892.72;5036888;28;20264;-69
2022/09/27 11:32:37;;;;;;;4.77;2.17;;;;;;;11.32;96.16;94878.44;5038674;28;20201;-69
2022/09/27 11:35:26;;;;;;;2.27;1.17;;;;;;;11.34;96.18;94882.47;5037534;28;20930;-69
2022/09/27 11:38:00;;;;;;;2.83;1.13;;;;;;;11.39;97.17;94874.72;5038488;28;20251;-69
2022/09/27 11:40:35;;;;;;;2.07;1.00;;;;;;;11.41;95.69;94864.75;5038265;28;20224;-68
2022/09/27 11:43:22;;;;;;;3.67;1.57;;;;;;;11.41;94.49;94867.41;5037969;28;20201;-68
2022/09/27 11:45:57;;;;;;;2.17;1.10;;;;;;;11.52;94.36;94861.47;5038559;28;20228;-68
2022/09/27 11:48:40;;;;;;;2.23;0.90;;;;;;;11.81;94.46;94852.88;5033869;28;20223;-69
2022/09/27 11:51:25;;;;;;;4.17;1.43;;;;;;;11.89;92.67;94842.03;5037920;28;20193;-68